Time;durP1;ratioP1;P1;durP2;ratioP2;P2;SDS_P1;SDS_P2;PMS_P1;PMS_P2;Temp;Humidity;BMP_temperature;BMP_pressure;BME280_temperature;BME280_humidity;BME280_pressure;Samples;Min_cycle;Max_cycle;Signal;HPM_P1;HPM_P2
2022/11/05 00:10:06;;;;;;;29.02;21.93;;;;;;;5.28;100.00;99958.62;1734119;82;21617;-74
2022/11/05 00:18:04;;;;;;;33.33;21.77;;;;;;;5.17;100.00;99953.13;1745314;81;21020;-80
2022/11/05 00:20:30;;;;;;;27.07;20.35;;;;;;;5.15;100.00;99949.84;1723225;82;21482;-81
2022/11/05 00:26:01;;;;;;;34.50;23.22;;;;;;;5.18;100.00;99950.78;1786449;80;21574;-75
2022/11/05 00:28:28;;;;;;;36.88;24.32;;;;;;;5.16;100.00;99950.98;1786548;80;21107;-73
2022/11/05 00:31:05;;;;;;;33.15;25.35;;;;;;;5.17;100.00;99951.80;1784652;80;20983;-72
2022/11/05 00:33:33;;;;;;;38.10;24.00;;;;;;;5.28;100.00;99950.63;1781146;78;20983;-77
2022/11/05 00:36:02;;;;;;;34.75;25.62;;;;;;;5.43;100.00;99953.05;1786395;80;21081;-74
2022/11/05 00:38:29;;;;;;;30.55;22.90;;;;;;;5.54;100.00;99947.59;1786268;80;21043;-74
2022/11/05 00:40:55;;;;;;;37.58;28.30;;;;;;;5.64;100.00;99952.78;1781941;78;21127;-75
2022/11/05 00:46:07;;;;;;;37.13;27.07;;;;;;;5.80;100.00;99959.50;1738486;82;21071;-71
2022/11/05 00:51:19;;;;;;;39.10;27.58;;;;;;;5.81;100.00;99953.63;1738583;82;21075;-73
2022/11/05 00:53:45;;;;;;;30.90;24.07;;;;;;;5.80;100.00;99956.02;1711484;82;21141;-77
2022/11/05 00:56:12;;;;;;;32.53;24.57;;;;;;;5.77;100.00;99951.90;1741884;82;20962;-73
2022/11/05 00:58:38;;;;;;;33.08;24.50;;;;;;;5.75;100.00;99959.83;1742933;81;20989;-73
2022/11/05 01:01:05;;;;;;;39.15;28.40;;;;;;;5.75;100.00;99955.83;1711853;82;20955;-75
2022/11/05 01:03:34;;;;;;;33.38;23.92;;;;;;;5.73;100.00;99958.70;1718577;82;20910;-72
2022/11/05 01:06:16;;;;;;;34.70;26.15;;;;;;;5.73;100.00;99964.03;1723699;82;21115;-73
2022/11/05 01:08:44;;;;;;;31.50;25.37;;;;;;;5.68;100.00;99963.84;1708602;84;21008;-73
2022/11/05 01:11:33;;;;;;;33.23;25.25;;;;;;;5.64;100.00;99962.13;1783261;80;21023;-71
2022/11/05 01:14:06;;;;;;;49.33;35.43;;;;;;;5.67;100.00;99959.53;1756626;80;20981;-71
2022/11/05 01:16:35;;;;;;;33.53;25.48;;;;;;;5.68;100.00;99951.33;1724079;81;21040;-73
2022/11/05 01:19:03;;;;;;;38.08;27.27;;;;;;;5.71;100.00;99957.56;1769981;79;21086;-72
2022/11/05 01:21:30;;;;;;;36.42;25.57;;;;;;;5.71;100.00;99960.23;1769742;80;21036;-73
2022/11/05 01:23:57;;;;;;;29.05;25.50;;;;;;;5.74;100.00;99966.19;1760379;80;21036;-72
2022/11/05 01:26:25;;;;;;;31.00;25.00;;;;;;;5.77;100.00;99962.58;1785888;80;21061;-73
2022/11/05 01:28:56;;;;;;;32.67;26.73;;;;;;;5.81;100.00;99973.13;1761574;80;21043;-72
2022/11/05 01:31:23;;;;;;;36.77;29.65;;;;;;;5.84;100.00;99965.23;1777147;80;21152;-76
2022/11/05 01:33:50;;;;;;;33.02;27.32;;;;;;;5.87;100.00;99970.16;1778699;80;21007;-88
2022/11/05 01:36:18;;;;;;;52.53;31.02;;;;;;;5.91;100.00;99967.36;1716691;83;21517;-82
2022/11/05 01:38:44;;;;;;;39.73;29.55;;;;;;;5.96;100.00;99963.54;1736826;82;21036;-87
2022/11/05 01:41:11;;;;;;;35.80;27.50;;;;;;;6.02;100.00;99967.52;1738472;82;21114;-82
2022/11/05 01:43:56;;;;;;;48.02;29.20;;;;;;;6.07;100.00;99962.87;1737954;81;21170;-79
2022/11/05 01:46:38;;;;;;;38.65;28.80;;;;;;;6.12;100.00;99965.73;1762231;81;20967;-79
2022/11/05 01:49:13;;;;;;;36.55;28.20;;;;;;;6.17;100.00;99967.23;1761357;81;21002;-75
2022/11/05 01:51:41;;;;;;;40.78;28.02;;;;;;;6.23;100.00;99964.23;1759478;80;21049;-84
2022/11/05 01:54:11;;;;;;;53.30;28.57;;;;;;;6.24;100.00;99964.00;1722861;81;21095;-75
2022/11/05 01:56:51;;;;;;;37.38;25.62;;;;;;;6.31;100.00;99967.46;1711720;81;21128;-81
2022/11/05 01:59:31;;;;;;;28.32;24.00;;;;;;;6.44;100.00;99965.20;1731830;81;21035;-76
2022/11/05 02:01:57;;;;;;;29.60;22.20;;;;;;;6.54;100.00;99969.55;1732267;81;20988;-85
2022/11/05 02:04:31;;;;;;;29.12;22.45;;;;;;;6.66;100.00;99968.35;1721621;81;21075;-87
2022/11/05 02:06:57;;;;;;;26.80;20.15;;;;;;;6.64;100.00;99969.89;1709722;84;21024;-76
2022/11/05 02:09:28;;;;;;;26.00;18.45;;;;;;;6.52;100.00;99968.97;1710661;82;21227;-80
2022/11/05 02:11:55;;;;;;;26.80;20.27;;;;;;;6.44;100.00;99974.55;1725973;82;21050;-77
2022/11/05 02:14:21;;;;;;;28.45;19.23;;;;;;;6.37;100.00;99973.28;1704123;84;20908;-76
2022/11/05 02:17:13;;;;;;;28.47;18.80;;;;;;;6.38;100.00;99984.79;1701022;83;21039;-83
2022/11/05 02:20:14;;;;;;;25.55;19.00;;;;;;;6.38;100.00;99989.59;1678256;85;20973;-77
2022/11/05 02:23:20;;;;;;;26.48;17.35;;;;;;;6.38;100.00;99988.25;1711094;83;21024;-73
2022/11/05 02:26:26;;;;;;;22.75;18.37;;;;;;;6.42;100.00;99984.66;1737048;82;20972;-73
2022/11/05 02:29:07;;;;;;;26.77;19.05;;;;;;;6.38;100.00;99987.47;1717869;78;21543;-79
2022/11/05 02:31:52;;;;;;;26.27;19.15;;;;;;;6.32;100.00;99989.65;1758781;81;23450;-77
2022/11/05 02:34:36;;;;;;;25.88;19.10;;;;;;;6.31;100.00;99995.51;1766511;81;21069;-86
2022/11/05 02:37:34;;;;;;;21.52;15.72;;;;;;;6.30;100.00;99998.38;1767111;81;23290;-88
2022/11/05 02:40:21;;;;;;;21.25;16.55;;;;;;;6.30;100.00;100003.72;1737119;81;21560;-91
2022/11/05 02:43:13;;;;;;;21.40;17.45;;;;;;;6.28;100.00;100000.47;1793692;79;21003;-88
2022/11/05 02:45:51;;;;;;;26.97;17.00;;;;;;;6.25;100.00;100007.03;1786179;79;21111;-84
2022/11/05 02:48:47;;;;;;;29.48;20.80;;;;;;;6.21;100.00;99999.67;1708378;82;21076;-85
2022/11/05 02:51:32;;;;;;;36.60;24.43;;;;;;;6.19;100.00;99993.20;1763677;81;21134;-89
2022/11/05 02:54:09;;;;;;;29.85;20.37;;;;;;;6.23;100.00;99997.61;1763621;81;21048;-83
2022/11/05 02:56:40;;;;;;;39.33;26.25;;;;;;;6.27;100.00;100001.49;1762332;81;21056;-70
2022/11/05 02:59:06;;;;;;;29.35;20.45;;;;;;;6.22;100.00;99996.80;1762378;80;21028;-78
2022/11/05 03:01:35;;;;;;;25.00;21.82;;;;;;;6.20;100.00;99992.69;1763153;80;20961;-80
2022/11/05 03:04:03;;;;;;;25.32;18.55;;;;;;;6.15;100.00;99990.66;1763196;81;21053;-77
2022/11/05 03:07:06;;;;;;;23.10;17.35;;;;;;;6.13;100.00;99988.73;1763307;81;21013;-75
2022/11/05 03:10:07;;;;;;;20.37;16.50;;;;;;;6.07;100.00;99982.90;1767267;80;20976;-78
2022/11/05 03:13:09;;;;;;;17.23;14.07;;;;;;;6.01;100.00;99983.23;1733224;82;20960;-77
2022/11/05 03:15:58;;;;;;;18.98;15.83;;;;;;;6.01;100.00;99975.22;1739131;81;21486;-75
2022/11/05 03:18:54;;;;;;;19.30;15.55;;;;;;;6.02;100.00;99969.38;1777636;80;21169;-75
2022/11/05 03:21:31;;;;;;;19.30;15.68;;;;;;;6.04;100.00;99970.78;1758638;81;20949;-79
2022/11/05 03:24:01;;;;;;;19.15;16.37;;;;;;;6.05;100.00;99972.42;1759631;81;21088;-78
2022/11/05 03:26:38;;;;;;;19.32;16.40;;;;;;;6.09;100.00;99977.64;1763427;81;21005;-79
2022/11/05 03:29:09;;;;;;;24.47;17.85;;;;;;;6.12;100.00;99983.08;1745635;80;21049;-79
2022/11/05 03:31:37;;;;;;;22.27;17.42;;;;;;;6.15;100.00;99982.64;1722549;82;21300;-79
2022/11/05 03:34:04;;;;;;;22.15;15.32;;;;;;;6.19;100.00;99987.86;1685125;83;20983;-79
2022/11/05 03:36:38;;;;;;;18.92;15.32;;;;;;;6.28;100.00;99988.45;1709195;83;20941;-80
2022/11/05 03:39:08;;;;;;;21.93;14.38;;;;;;;6.34;100.00;99984.89;1714875;82;25079;-78
2022/11/05 03:41:35;;;;;;;16.85;14.98;;;;;;;6.42;100.00;99992.16;1678594;85;21107;-79
2022/11/05 03:44:05;;;;;;;18.02;15.13;;;;;;;6.49;100.00;99992.92;1678638;85;21059;-80
2022/11/05 03:46:37;;;;;;;17.67;14.40;;;;;;;6.46;100.00;99994.70;1688133;82;21011;-77
2022/11/05 03:49:05;;;;;;;19.12;14.50;;;;;;;6.45;100.00;99993.05;1695546;83;21530;-76
2022/11/05 03:52:05;;;;;;;13.08;11.68;;;;;;;6.47;100.00;99992.33;1678395;85;21101;-78
2022/11/05 03:54:32;;;;;;;14.58;12.20;;;;;;;6.54;100.00;100000.28;1678207;85;21020;-75
2022/11/05 03:57:15;;;;;;;14.63;12.58;;;;;;;6.59;100.00;100004.47;1678768;85;21114;-75
2022/11/05 03:59:45;;;;;;;19.02;14.23;;;;;;;6.61;100.00;100003.75;1696112;83;21520;-76
2022/11/05 04:02:13;;;;;;;15.38;13.35;;;;;;;6.64;100.00;100009.16;1712340;83;21723;-77
2022/11/05 04:04:40;;;;;;;15.80;14.00;;;;;;;6.69;100.00;100008.00;1706410;82;21647;-77
2022/11/05 04:15:28;;;;;;;15.58;13.85;;;;;;;6.75;100.00;100001.80;1696799;83;20979;-80
2022/11/05 04:17:57;;;;;;;14.95;12.95;;;;;;;6.67;100.00;99997.52;1678806;84;21620;-80
2022/11/05 04:25:46;;;;;;;16.85;14.33;;;;;;;6.68;100.00;100005.02;1704359;83;21131;-77
2022/11/05 04:28:13;;;;;;;18.77;15.40;;;;;;;6.70;100.00;100006.45;1721640;82;21519;-75
2022/11/05 04:30:43;;;;;;;17.67;15.20;;;;;;;6.71;100.00;100007.27;1733201;82;20996;-76
2022/11/05 04:33:13;;;;;;;19.35;14.33;;;;;;;6.76;100.00;100010.12;1737879;82;21066;-79
2022/11/05 04:35:44;;;;;;;18.55;16.07;;;;;;;6.76;100.00;100016.25;1763562;81;21134;-80
2022/11/05 04:38:14;;;;;;;16.60;13.72;;;;;;;6.78;100.00;100020.06;1743622;81;21568;-75
2022/11/05 04:40:41;;;;;;;23.32;18.40;;;;;;;6.75;100.00;100024.52;1736466;82;21088;-76
2022/11/05 04:43:12;;;;;;;23.98;18.17;;;;;;;6.72;100.00;100020.92;1735632;82;21048;-77
2022/11/05 04:45:41;;;;;;;19.15;16.00;;;;;;;6.72;100.00;100024.92;1707056;83;20998;-76
2022/11/05 04:48:07;;;;;;;22.73;15.93;;;;;;;6.75;100.00;100037.88;1766159;81;21094;-79
2022/11/05 04:50:38;;;;;;;22.90;16.62;;;;;;;6.73;100.00;100040.75;1739759;81;21020;-76
2022/11/05 04:53:05;;;;;;;24.43;15.43;;;;;;;6.72;100.00;100040.45;1735724;82;21020;-77
2022/11/05 04:55:31;;;;;;;23.35;16.57;;;;;;;6.76;100.00;100043.53;1735225;82;21396;-76
2022/11/05 04:57:58;;;;;;;29.12;22.62;;;;;;;6.79;100.00;100046.58;1735570;82;21072;-75
2022/11/05 05:00:25;;;;;;;25.37;18.45;;;;;;;6.87;100.00;100044.15;1735508;82;21144;-76
2022/11/05 05:02:51;;;;;;;21.95;15.98;;;;;;;6.90;100.00;100048.56;1712263;82;21035;-76
2022/11/05 05:05:18;;;;;;;18.85;15.43;;;;;;;6.89;100.00;100050.94;1735172;82;20992;-75
2022/11/05 05:07:45;;;;;;;20.68;17.05;;;;;;;6.90;100.00;100052.58;1705312;84;21115;-76
2022/11/05 05:10:12;;;;;;;30.68;19.90;;;;;;;6.89;100.00;100050.94;1745642;80;22022;-76
2022/11/05 05:12:40;;;;;;;25.37;18.57;;;;;;;6.88;100.00;100049.80;1756260;81;20945;-76
2022/11/05 05:15:08;;;;;;;20.90;17.20;;;;;;;6.89;100.00;100059.47;1742705;81;21122;-75
2022/11/05 05:17:34;;;;;;;20.05;15.43;;;;;;;6.95;100.00;100070.64;1706424;82;20990;-75
2022/11/05 05:22:53;;;;;;;19.92;16.25;;;;;;;6.95;100.00;100076.78;1735786;82;22138;-75
2022/11/05 05:25:20;;;;;;;26.05;17.75;;;;;;;6.94;100.00;100083.70;1735646;81;21107;-77
2022/11/05 05:27:48;;;;;;;23.55;16.80;;;;;;;6.90;100.00;100089.19;1735777;81;21016;-78
2022/11/05 05:30:15;;;;;;;21.73;17.42;;;;;;;6.92;100.00;100091.11;1735545;82;21005;-79
2022/11/05 05:32:43;;;;;;;21.82;16.20;;;;;;;6.93;100.00;100094.09;1731592;82;21139;-77
2022/11/05 05:35:09;;;;;;;24.72;15.70;;;;;;;6.94;100.00;100096.56;1730296;82;21084;-76
2022/11/05 05:37:36;;;;;;;20.85;15.80;;;;;;;7.04;100.00;100100.61;1765494;81;21147;-76
2022/11/05 05:40:04;;;;;;;22.15;16.42;;;;;;;7.04;100.00;100109.45;1752142;81;21015;-75
2022/11/05 05:42:31;;;;;;;21.02;15.68;;;;;;;7.04;100.00;100104.62;1724658;83;21006;-78
2022/11/05 05:44:58;;;;;;;18.27;14.45;;;;;;;7.12;100.00;100105.16;1738010;82;21066;-81
2022/11/05 05:47:25;;;;;;;25.50;16.62;;;;;;;7.19;100.00;100115.31;1737724;82;21076;-79
2022/11/05 05:49:51;;;;;;;19.65;13.80;;;;;;;7.21;100.00;100117.75;1737707;81;21284;-81
2022/11/05 05:52:17;;;;;;;20.60;14.40;;;;;;;7.25;100.00;100113.08;1756918;81;21143;-78
2022/11/05 05:54:44;;;;;;;20.48;16.30;;;;;;;7.28;100.00;100118.02;1764769;81;21006;-79
2022/11/05 05:57:10;;;;;;;21.15;16.93;;;;;;;7.24;100.00;100126.16;1736878;81;21072;-77
2022/11/05 05:59:38;;;;;;;22.80;16.35;;;;;;;7.21;100.00;100125.77;1745802;81;21071;-81
2022/11/05 06:02:04;;;;;;;22.15;17.50;;;;;;;7.19;100.00;100132.70;1714767;82;21063;-77
2022/11/05 06:04:30;;;;;;;26.17;18.67;;;;;;;7.06;100.00;100127.94;1737552;82;20911;-78
2022/11/05 06:06:57;;;;;;;20.72;16.12;;;;;;;7.04;100.00;100131.36;1737349;82;20983;-76
2022/11/05 06:09:23;;;;;;;22.02;15.95;;;;;;;7.05;100.00;100133.80;1737208;81;21035;-78
2022/11/05 06:11:50;;;;;;;17.52;14.23;;;;;;;7.05;100.00;100138.36;1709812;82;21552;-77
2022/11/05 06:14:16;;;;;;;17.55;15.75;;;;;;;7.00;100.00;100143.02;1737593;82;21782;-76
2022/11/05 06:16:43;;;;;;;22.65;18.57;;;;;;;6.95;100.00;100142.84;1742876;81;21505;-77
2022/11/05 06:19:09;;;;;;;25.90;19.73;;;;;;;6.95;100.00;100149.52;1738207;81;21533;-77
2022/11/05 06:21:36;;;;;;;25.27;21.40;;;;;;;6.87;100.00;100156.44;1738392;82;21038;-79
2022/11/05 06:24:05;;;;;;;23.18;17.40;;;;;;;6.83;100.00;100152.05;1738980;82;21070;-77
2022/11/05 06:26:31;;;;;;;20.50;17.35;;;;;;;6.82;100.00;100158.42;1714214;82;21131;-77
2022/11/05 06:28:58;;;;;;;26.70;19.48;;;;;;;6.80;100.00;100156.50;1738942;82;21000;-77
2022/11/05 06:31:25;;;;;;;25.37;19.23;;;;;;;6.75;100.00;100161.66;1748156;81;20995;-77
2022/11/05 06:33:53;;;;;;;22.42;17.98;;;;;;;6.74;100.00;100159.19;1746030;81;21008;-75
2022/11/05 06:36:19;;;;;;;27.42;19.42;;;;;;;6.79;100.00;100158.86;1753365;81;21029;-76
2022/11/05 06:38:47;;;;;;;25.55;20.43;;;;;;;6.79;100.00;100156.19;1746873;81;21253;-77
2022/11/05 06:41:14;;;;;;;21.25;16.42;;;;;;;6.84;100.00;100159.55;1753943;81;21057;-76
2022/11/05 06:43:42;;;;;;;21.07;16.52;;;;;;;6.82;100.00;100161.61;1734252;81;21023;-77
2022/11/05 06:46:10;;;;;;;18.95;14.47;;;;;;;6.81;100.00;100166.67;1768144;81;21054;-76
2022/11/05 06:48:36;;;;;;;23.25;16.32;;;;;;;6.79;100.00;100175.41;1745591;81;21054;-79
2022/11/05 06:51:03;;;;;;;19.05;15.18;;;;;;;6.70;100.00;100174.84;1751586;81;21261;-78
2022/11/05 06:53:30;;;;;;;18.23;15.13;;;;;;;6.72;100.00;100176.77;1699540;83;21040;-78
2022/11/05 06:55:59;;;;;;;17.30;14.73;;;;;;;6.70;100.00;100180.70;1748862;81;21026;-78
2022/11/05 06:58:29;;;;;;;15.05;12.37;;;;;;;6.66;100.00;100181.65;1737405;82;21009;-78
2022/11/05 07:01:06;;;;;;;20.43;14.30;;;;;;;6.57;100.00;100183.72;1710881;82;21038;-79
2022/11/05 07:03:33;;;;;;;14.53;12.95;;;;;;;6.46;100.00;100196.42;1704208;84;21185;-79
2022/11/05 07:05:59;;;;;;;14.38;12.25;;;;;;;6.46;100.00;100200.94;1736918;82;21046;-80
2022/11/05 07:08:32;;;;;;;22.32;16.32;;;;;;;6.44;100.00;100201.66;1754179;81;20986;-79
2022/11/05 07:10:59;;;;;;;17.17;13.78;;;;;;;6.39;100.00;100196.94;1724734;83;21072;-78
2022/11/05 07:13:26;;;;;;;20.95;16.60;;;;;;;6.34;100.00;100200.75;1737798;82;21675;-82
2022/11/05 07:15:53;;;;;;;17.32;15.00;;;;;;;6.33;100.00;100205.78;1737070;82;21503;-80
2022/11/05 07:18:21;;;;;;;32.80;25.37;;;;;;;6.36;100.00;100203.23;1752914;81;21275;-79
2022/11/05 07:20:49;;;;;;;19.27;14.85;;;;;;;6.38;100.00;100205.98;1760708;81;20986;-81
2022/11/05 07:23:17;;;;;;;17.77;14.70;;;;;;;6.38;100.00;100206.52;1756005;81;21048;-77
2022/11/05 07:25:45;;;;;;;28.38;17.92;;;;;;;6.32;100.00;100208.69;1723365;81;21068;-79
2022/11/05 07:28:13;;;;;;;24.02;20.15;;;;;;;6.29;100.00;100199.73;1721133;82;21289;-80
2022/11/05 07:30:40;;;;;;;23.15;18.67;;;;;;;6.28;100.00;100194.94;1716237;81;21059;-77
2022/11/05 07:33:07;;;;;;;27.42;19.70;;;;;;;6.25;100.00;100187.84;1688071;84;21068;-78
2022/11/05 07:35:34;;;;;;;23.77;18.37;;;;;;;6.24;100.00;100193.69;1702563;83;21035;-79
2022/11/05 07:38:02;;;;;;;25.23;16.87;;;;;;;6.22;100.00;100199.77;1712323;81;21055;-78
2022/11/05 07:40:29;;;;;;;25.88;19.65;;;;;;;6.17;100.00;100198.23;1704950;84;21251;-77
2022/11/05 07:42:59;;;;;;;24.65;18.67;;;;;;;6.09;100.00;100202.48;1734919;81;20986;-76
2022/11/05 07:45:27;;;;;;;32.65;17.87;;;;;;;6.07;100.00;100204.02;1719481;83;20981;-77
2022/11/05 07:47:59;;;;;;;23.75;17.40;;;;;;;6.08;100.00;100210.17;1728469;82;20961;-77
2022/11/05 07:50:28;;;;;;;17.27;13.43;;;;;;;6.07;100.00;100197.84;1728852;82;21064;-76
2022/11/05 07:53:04;;;;;;;21.45;15.85;;;;;;;6.11;100.00;100204.41;1728589;83;21056;-75
2022/11/05 07:55:31;;;;;;;23.75;19.30;;;;;;;6.12;100.00;100207.39;1732757;81;21094;-76
2022/11/05 07:58:00;;;;;;;19.98;16.93;;;;;;;6.08;100.00;100205.66;1719621;81;21008;-79
2022/11/05 08:00:27;;;;;;;24.65;17.50;;;;;;;6.09;100.00;100196.59;1707115;81;21264;-78
2022/11/05 08:03:06;;;;;;;24.18;20.10;;;;;;;6.04;100.00;100199.06;1715750;83;21541;-78
2022/11/05 08:05:35;;;;;;;22.22;16.80;;;;;;;6.07;100.00;100203.19;1729071;81;21437;-77
2022/11/05 08:08:03;;;;;;;20.40;17.05;;;;;;;6.07;100.00;100208.53;1724951;81;21004;-75
2022/11/05 08:10:31;;;;;;;15.40;13.35;;;;;;;6.09;100.00;100213.16;1728884;81;20921;-76
2022/11/05 08:12:59;;;;;;;16.80;14.05;;;;;;;6.09;100.00;100215.83;1753096;81;21099;-76
2022/11/05 08:15:26;;;;;;;18.62;16.07;;;;;;;6.08;100.00;100217.67;1717230;81;21079;-76
2022/11/05 08:18:11;;;;;;;19.07;15.63;;;;;;;6.06;100.00;100225.06;1736830;81;21132;-76
2022/11/05 08:20:38;;;;;;;14.00;12.23;;;;;;;6.06;100.00;100224.23;1714271;82;21572;-76
2022/11/05 08:23:08;;;;;;;16.70;14.38;;;;;;;6.13;100.00;100237.08;1713695;81;21027;-76
2022/11/05 08:25:35;;;;;;;17.95;16.12;;;;;;;6.16;100.00;100243.84;1745648;80;21024;-76
2022/11/05 08:28:06;;;;;;;20.12;16.07;;;;;;;6.17;100.00;100240.97;1732071;82;21035;-77
2022/11/05 08:30:33;;;;;;;20.23;16.80;;;;;;;6.18;100.00;100249.81;1735846;82;21859;-76
2022/11/05 08:33:09;;;;;;;18.87;16.15;;;;;;;6.20;100.00;100242.39;1732743;82;21567;-75
2022/11/05 08:35:38;;;;;;;20.30;17.65;;;;;;;6.22;100.00;100239.02;1713232;81;21055;-76
2022/11/05 08:38:07;;;;;;;24.98;20.48;;;;;;;6.24;100.00;100240.44;1744427;81;20973;-76
2022/11/05 08:40:35;;;;;;;22.62;15.70;;;;;;;6.24;100.00;100246.28;1717500;82;21080;-76
2022/11/05 08:43:02;;;;;;;16.32;13.55;;;;;;;6.27;100.00;100247.22;1732849;81;21959;-78
2022/11/05 08:45:29;;;;;;;16.35;13.03;;;;;;;6.22;100.00;100248.36;1736604;82;21056;-78
2022/11/05 08:48:09;;;;;;;15.53;12.70;;;;;;;6.23;100.00;100255.34;1734972;81;21030;-77
2022/11/05 08:50:37;;;;;;;16.70;13.78;;;;;;;6.29;100.00;100258.50;1740823;81;21566;-84
2022/11/05 08:53:05;;;;;;;15.70;13.20;;;;;;;6.27;100.00;100256.06;1742204;81;21044;-78
2022/11/05 08:55:32;;;;;;;15.90;12.63;;;;;;;6.29;100.00;100266.00;1737622;81;21474;-79
2022/11/05 08:58:02;;;;;;;15.05;12.82;;;;;;;6.26;100.00;100273.11;1736901;82;21105;-76
2022/11/05 09:00:34;;;;;;;22.48;13.28;;;;;;;6.21;100.00;100280.09;1737499;81;21177;-78
2022/11/05 09:03:02;;;;;;;19.27;14.00;;;;;;;6.11;100.00;100277.33;1742778;81;21035;-76
2022/11/05 09:05:29;;;;;;;15.55;13.08;;;;;;;6.12;100.00;100286.17;1758991;81;21103;-78
2022/11/05 09:07:58;;;;;;;17.17;13.90;;;;;;;6.18;100.00;100293.88;1735772;81;20967;-76
2022/11/05 09:10:27;;;;;;;19.80;13.25;;;;;;;6.19;100.00;100284.30;1759425;81;20977;-76
2022/11/05 09:12:55;;;;;;;18.60;15.32;;;;;;;6.24;100.00;100289.02;1735712;80;21095;-78
2022/11/05 09:15:23;;;;;;;15.98;14.30;;;;;;;6.28;100.00;100282.27;1712122;81;21109;-77
2022/11/05 09:17:50;;;;;;;21.42;14.70;;;;;;;6.31;100.00;100284.51;1724709;83;21534;-81
2022/11/05 09:20:18;;;;;;;24.23;14.10;;;;;;;6.26;100.00;100277.12;1738623;82;21219;-81
2022/11/05 09:22:45;;;;;;;17.95;13.90;;;;;;;6.29;100.00;100278.54;1744827;81;21036;-82
2022/11/05 09:25:12;;;;;;;14.87;12.15;;;;;;;6.36;100.00;100284.70;1742330;81;21122;-79
2022/11/05 09:27:40;;;;;;;18.55;14.07;;;;;;;6.43;100.00;100281.49;1753976;81;21062;-84
2022/11/05 09:30:10;;;;;;;17.15;13.98;;;;;;;6.41;100.00;100268.37;1760433;81;20995;-79
2022/11/05 09:32:37;;;;;;;21.42;15.78;;;;;;;6.36;100.00;100270.84;1724951;82;21235;-75
2022/11/05 09:35:05;;;;;;;17.05;13.85;;;;;;;6.32;100.00;100264.27;1758733;81;21280;-78
2022/11/05 09:37:32;;;;;;;15.90;13.43;;;;;;;6.31;100.00;100275.98;1692277;83;21045;-82
2022/11/05 09:39:59;;;;;;;18.05;14.13;;;;;;;6.34;100.00;100278.73;1711041;83;21562;-77
2022/11/05 09:42:32;;;;;;;17.42;14.45;;;;;;;6.32;100.00;100282.97;1706304;84;21060;-78
2022/11/05 09:45:03;;;;;;;21.00;14.80;;;;;;;6.27;100.00;100283.28;1694202;84;22169;-75
2022/11/05 09:47:36;;;;;;;19.27;15.05;;;;;;;6.29;100.00;100297.23;1746634;81;21006;-77
2022/11/05 09:50:07;;;;;;;22.52;14.58;;;;;;;6.31;100.00;100295.19;1735909;82;21078;-79
2022/11/05 09:52:35;;;;;;;22.15;15.30;;;;;;;6.32;100.00;100286.16;1709819;82;20929;-82
2022/11/05 09:55:08;;;;;;;20.92;17.25;;;;;;;6.29;100.00;100282.03;1736238;81;21099;-80
2022/11/05 09:57:43;;;;;;;18.50;15.58;;;;;;;6.29;100.00;100290.05;1713937;82;21173;-78
2022/11/05 10:00:15;;;;;;;18.02;13.40;;;;;;;6.36;100.00;100294.06;1735590;82;20984;-77
2022/11/05 10:03:01;;;;;;;16.40;12.60;;;;;;;6.39;100.00;100281.09;1685206;82;21032;-81
2022/11/05 10:05:28;;;;;;;17.05;12.80;;;;;;;6.43;100.00;100302.87;1735529;82;21111;-78
2022/11/05 10:08:00;;;;;;;17.52;12.85;;;;;;;6.49;100.00;100300.20;1751065;81;20964;-78
2022/11/05 10:10:48;;;;;;;16.48;12.80;;;;;;;6.58;100.00;100300.80;1767415;81;21236;-78
2022/11/05 10:13:23;;;;;;;17.87;13.78;;;;;;;6.64;100.00;100301.30;1755686;81;21062;-78
2022/11/05 10:16:20;;;;;;;24.35;13.28;;;;;;;6.59;100.00;100303.78;1755592;81;21040;-77
2022/11/05 10:19:01;;;;;;;18.00;13.30;;;;;;;6.57;100.00;100307.98;1675557;85;21527;-79
2022/11/05 10:21:28;;;;;;;20.70;14.85;;;;;;;6.47;100.00;100297.44;1695009;84;22282;-84
2022/11/05 10:23:54;;;;;;;16.45;13.98;;;;;;;6.43;100.00;100304.20;1691383;82;22462;-75
2022/11/05 10:26:23;;;;;;;15.05;12.28;;;;;;;6.42;100.00;100307.93;1741616;81;21657;-81
2022/11/05 10:28:54;;;;;;;17.15;13.28;;;;;;;6.41;100.00;100310.29;1744568;81;21004;-76
2022/11/05 10:31:23;;;;;;;17.73;13.28;;;;;;;6.45;100.00;100313.67;1721618;81;21008;-79
2022/11/05 10:33:53;;;;;;;19.40;13.15;;;;;;;6.48;100.00;100311.08;1712603;81;21120;-74
2022/11/05 10:36:29;;;;;;;18.80;15.32;;;;;;;6.49;100.00;100310.06;1736808;82;22079;-72
2022/11/05 10:39:15;;;;;;;17.75;14.70;;;;;;;6.50;100.00;100307.70;1750298;82;21072;-72
2022/11/05 10:42:27;;;;;;;29.27;21.25;;;;;;;6.50;100.00;100308.53;1750089;82;21600;-71
2022/11/05 10:45:18;;;;;;;17.20;13.28;;;;;;;6.49;100.00;100300.71;1742317;81;21489;-72
2022/11/05 10:48:24;;;;;;;15.72;13.22;;;;;;;6.55;100.00;100294.03;1734606;82;21004;-73
2022/11/05 10:50:52;;;;;;;22.40;15.58;;;;;;;6.57;100.00;100288.45;1734964;82;21071;-74
2022/11/05 10:53:33;;;;;;;21.87;16.15;;;;;;;6.64;100.00;100286.60;1711721;82;21083;-74
2022/11/05 10:55:59;;;;;;;15.72;13.05;;;;;;;6.67;100.00;100284.01;1733838;82;21000;-72
2022/11/05 10:58:30;;;;;;;18.82;14.13;;;;;;;6.68;100.00;100287.00;1734895;82;21084;-72
2022/11/05 11:01:03;;;;;;;20.57;14.00;;;;;;;6.66;100.00;100278.39;1734919;82;21047;-73
2022/11/05 11:03:40;;;;;;;;;;;;;;;6.58;100.00;100283.42;1714489;82;21928;-72
2022/11/05 11:06:26;;;;;;;14.10;12.47;;;;;;;6.58;100.00;100284.76;1767466;81;20113;-72
2022/11/05 11:08:55;;;;;;;17.50;12.80;;;;;;;6.57;100.00;100293.80;1766949;81;21032;-72
2022/11/05 11:11:34;;;;;;;15.83;12.90;;;;;;;6.57;100.00;100291.95;1767176;81;21079;-73
2022/11/05 11:14:14;;;;;;;22.07;15.88;;;;;;;6.59;100.00;100297.09;1766793;81;20944;-73
2022/11/05 11:16:45;;;;;;;21.55;13.50;;;;;;;6.55;100.00;100314.07;1767071;81;21868;-73
2022/11/05 11:19:34;;;;;;;22.70;14.97;;;;;;;6.54;100.00;100315.09;1767339;81;20992;-72
2022/11/05 11:22:09;;;;;;;20.00;13.95;;;;;;;6.51;100.00;100313.36;1767292;81;22244;-72
2022/11/05 11:24:41;;;;;;;18.00;14.18;;;;;;;6.47;100.00;100316.15;1757086;79;20966;-71
2022/11/05 11:27:19;;;;;;;22.67;17.10;;;;;;;6.47;100.00;100320.98;1737702;82;21528;-72
2022/11/05 11:29:55;;;;;;;22.50;14.78;;;;;;;6.49;100.00;100320.75;1738272;82;21566;-72
2022/11/05 11:32:24;;;;;;;20.17;15.53;;;;;;;6.54;100.00;100320.95;1738487;82;20978;-77
2022/11/05 11:34:53;;;;;;;27.90;16.57;;;;;;;6.53;100.00;100321.97;1738259;82;21057;-72
2022/11/05 11:37:36;;;;;;;19.75;16.42;;;;;;;6.55;100.00;100323.42;1759108;81;20976;-71
2022/11/05 11:40:17;;;;;;;23.20;15.95;;;;;;;6.60;100.00;100324.13;1727164;83;21063;-72
2022/11/05 11:42:48;;;;;;;19.65;13.70;;;;;;;6.63;100.00;100321.55;1737956;82;21148;-72
2022/11/05 11:45:27;;;;;;;23.55;16.30;;;;;;;6.65;100.00;100326.18;1758801;81;21527;-71
2022/11/05 11:47:55;;;;;;;22.90;15.10;;;;;;;6.62;100.00;100328.73;1726558;83;21035;-70
2022/11/05 11:50:44;;;;;;;23.83;15.80;;;;;;;6.60;100.00;100325.47;1758347;81;21018;-72
2022/11/05 11:53:22;;;;;;;19.50;13.03;;;;;;;6.59;100.00;100323.83;1726612;83;21697;-72
2022/11/05 11:56:12;;;;;;;21.07;14.68;;;;;;;6.67;100.00;100328.11;1738504;82;21277;-71
2022/11/05 11:58:51;;;;;;;28.07;16.20;;;;;;;6.68;100.00;100325.75;1725383;83;21528;-71
2022/11/05 12:01:49;;;;;;;23.75;15.05;;;;;;;6.64;100.00;100325.36;1737621;82;21072;-72
2022/11/05 12:04:24;;;;;;;21.37;14.90;;;;;;;6.68;100.00;100331.09;1758581;81;21019;-71
2022/11/05 12:07:19;;;;;;;20.55;15.72;;;;;;;6.64;100.00;100325.36;1706677;84;20957;-72
2022/11/05 12:10:09;;;;;;;21.60;14.98;;;;;;;6.67;100.00;100320.92;1725237;83;21162;-71
2022/11/05 12:12:47;;;;;;;26.55;15.58;;;;;;;6.73;100.00;100316.59;1737610;82;21058;-72
2022/11/05 12:15:46;;;;;;;21.93;13.18;;;;;;;6.70;100.00;100314.34;1759166;81;20986;-72